Taiseimaru — JL6483 — position and weather

sailwx.info

Track history (hours):
 
Tides and Currents Weather Stations Pressure Air Temp Water Temp Dewpoint Dewpoint Depression Visibility Wind Speed Wind Dir Waves Ship Positions

Taiseimaru

Last reported at 2014-Jul-28 13:32 UTC. Time now 2014-Jul-28 14:32 UTC.
Position N 35°24' E 139°45'.

Length 84 m; draft 5 m.

Type: Cargo ship. MMSI: 431500568.

Date/timePositionNaut miles runAvg speedWind from/ knotsBaromVisibWave heightAir tempDewpointWater temp
2014-Jul-28 13:32N 35°24' E 139°45'0 0.0
2014-Jul-28 12:32N 35°24' E 139°45'0 0.0
2014-Jul-28 11:32N 35°24' E 139°45'0 0.0
2014-Jul-28 10:32N 35°24' E 139°45'0 0.1
2014-Jul-28 09:32N 35°24' E 139°45'0 0.0
2014-Jul-28 08:32N 35°24' E 139°45'0 0.0
2014-Jul-28 07:32N 35°24' E 139°45'0 0.0
2014-Jul-28 06:32N 35°24' E 139°45'0 0.1
2014-Jul-28 05:32N 35°24' E 139°45'0 0.0
2014-Jul-28 04:32N 35°24' E 139°45'0 0.1
2014-Jul-28 03:32N 35°24' E 139°45'0 0.0
2014-Jul-28 02:32N 35°24' E 139°45'0 0.0
2014-Jul-28 01:32N 35°24' E 139°45'0 0.0
2014-Jul-28 00:32N 35°24' E 139°45'0 0.0
2014-Jul-27 23:32N 35°24' E 139°45'0 0.0
2014-Jul-27 22:32N 35°24' E 139°45'0 0.0
2014-Jul-27 21:32N 35°24' E 139°45'0 0.0
2014-Jul-27 20:32N 35°24' E 139°45'0 0.0
2014-Jul-27 19:32N 35°24' E 139°45'0 0.0
2014-Jul-27 18:32N 35°24' E 139°45'0 0.0
2014-Jul-27 17:32N 35°24' E 139°45'0 0.0
2014-Jul-27 16:32N 35°24' E 139°45'0 0.0
2014-Jul-27 15:32N 35°24' E 139°45'0 0.0
2014-Jul-27 14:32N 35°24' E 139°45'0 0.1
2014-Jul-27 13:32N 35°24' E 139°45'0 0.0
2014-Jul-27 12:32N 35°24' E 139°45'0 0.0
2014-Jul-27 11:32N 35°24' E 139°45'0 0.1
2014-Jul-27 10:32N 35°24' E 139°45'0 0.0
2014-Jul-27 09:31N 35°24' E 139°45'0 0.0
2014-Jul-27 08:31N 35°24' E 139°45'0 0.0
2014-Jul-27 07:31N 35°24' E 139°45'0 0.0
2014-Jul-27 06:31N 35°24' E 139°45'0 0.0
2014-Jul-27 05:31N 35°24' E 139°45'0 0.0
2014-Jul-27 04:31N 35°24' E 139°45'0 0.0
2014-Jul-27 03:31N 35°24' E 139°45'0 0.0
2014-Jul-27 02:31N 35°24' E 139°45'0 0.0
2014-Jul-27 01:31N 35°24' E 139°45'0 0.0
2014-Jul-27 00:31N 35°24' E 139°45'1 1.0
2014-Jul-26 23:33N 35°25' E 139°44'6 5.5
2014-Jul-26 22:31N 35°29' E 139°39'0 0.0
2014-Jul-26 21:28N 35°29' E 139°39'0 0.0
2014-Jul-26 20:31N 35°29' E 139°39'0 0.0
2014-Jul-26 19:31N 35°29' E 139°39'0 0.0
2014-Jul-26 18:31N 35°29' E 139°39'0 0.0
2014-Jul-26 17:31N 35°29' E 139°39'0 0.0
2014-Jul-26 16:31N 35°29' E 139°39'0 0.0
2014-Jul-26 15:31N 35°29' E 139°39'0 0.0
2014-Jul-26 14:31N 35°29' E 139°39'0 0.0
2014-Jul-26 13:31N 35°29' E 139°39'0 0.0
2014-Jul-26 12:31N 35°29' E 139°39'0 0.0
2014-Jul-26 11:28N 35°29' E 139°39'0 0.0
2014-Jul-26 10:31N 35°29' E 139°39'0 0.0
2014-Jul-26 09:31N 35°29' E 139°39'0 0.0
2014-Jul-26 08:31N 35°29' E 139°39'0 0.0
2014-Jul-26 07:31N 35°29' E 139°39'0 0.0
2014-Jul-26 06:33N 35°29' E 139°39'0 0.0
2014-Jul-26 05:33N 35°29' E 139°39'0 0.0
2014-Jul-26 04:33N 35°29' E 139°39'0 0.0
2014-Jul-26 03:33N 35°29' E 139°39'0 0.0
2014-Jul-26 02:33N 35°29' E 139°39'0 0.0
2014-Jul-26 01:33N 35°29' E 139°39'0 0.0
2014-Jul-26 00:33N 35°29' E 139°39'0 0.0
2014-Jul-25 23:33N 35°29' E 139°39'3 3.3
2014-Jul-25 22:33N 35°26' E 139°42'3 2.9
2014-Jul-25 21:31N 35°24' E 139°44'0 0.0
2014-Jul-25 20:31N 35°24' E 139°44'0 0.0
2014-Jul-25 19:33N 35°24' E 139°44'0 0.0
2014-Jul-25 18:33N 35°24' E 139°44'0 0.0
2014-Jul-25 17:33N 35°24' E 139°44'0 0.1
2014-Jul-25 16:33N 35°24' E 139°44'0 0.1
2014-Jul-25 15:33N 35°24' E 139°44'0 0.0
2014-Jul-25 14:33N 35°24' E 139°44'0 0.1
2014-Jul-25 13:33N 35°24' E 139°44'0 0.1
2014-Jul-25 12:33N 35°24' E 139°44'0 0.0
2014-Jul-25 11:33N 35°24' E 139°44'0 0.0
2014-Jul-25 10:33N 35°24' E 139°44'0 0.0
2014-Jul-25 09:33N 35°24' E 139°44'0 0.0
2014-Jul-25 08:33N 35°24' E 139°44'0 0.0
2014-Jul-25 07:33N 35°24' E 139°44'0 0.0
2014-Jul-25 06:33N 35°24' E 139°44'0 0.1
2014-Jul-25 05:33N 35°24' E 139°44'0 0.0
2014-Jul-25 04:33N 35°24' E 139°44'0 0.0
2014-Jul-25 03:33N 35°24' E 139°44'5 4.6
2014-Jul-25 02:32N 35°28' E 139°42'0 0.0
2014-Jul-25 01:32N 35°28' E 139°42'0 0.0
2014-Jul-25 00:32N 35°28' E 139°42'0 0.0
2014-Jul-24 23:32N 35°28' E 139°42'0 0.1
2014-Jul-24 22:32N 35°28' E 139°42'0 0.0
2014-Jul-24 21:32N 35°28' E 139°42'0 0.0
2014-Jul-24 20:32N 35°28' E 139°42'0 0.0
2014-Jul-24 19:32N 35°28' E 139°42'0 0.0
2014-Jul-24 18:32N 35°28' E 139°42'0 0.0
2014-Jul-24 17:32N 35°28' E 139°42'0 0.0
2014-Jul-24 16:32N 35°28' E 139°42'0 0.0
2014-Jul-24 15:32N 35°28' E 139°42'0 0.0
2014-Jul-24 14:32N 35°28' E 139°42'0 0.0
2014-Jul-24 13:32N 35°28' E 139°42'0 0.0
2014-Jul-24 12:32N 35°28' E 139°42'0 0.0
2014-Jul-24 11:32N 35°28' E 139°42'0 0.0
2014-Jul-24 10:32N 35°28' E 139°42'0 0.0
2014-Jul-24 09:32N 35°28' E 139°42'0 0.0
2014-Jul-24 08:33N 35°28' E 139°42'5 4.4
2014-Jul-24 07:31N 35°24' E 139°45'0 0.0
2014-Jul-24 06:31N 35°24' E 139°45'0 0.0
2014-Jul-24 05:31N 35°24' E 139°45'0 0.0
2014-Jul-24 04:31N 35°25' E 139°45'0 0.0
2014-Jul-24 03:31N 35°25' E 139°45'1 1.0
2014-Jul-24 02:33N 35°24' E 139°45'1110.7
2014-Jul-24 01:33N 35°13' E 139°47'1110.9
2014-Jul-24 00:33N 35°03' E 139°40'1211.9
2014-Jul-23 23:34N 34°56' E 139°29'  
2014-Jul-21 06:33N 34°37' E 134°58'1212.3
2014-Jul-21 05:33N 34°36' E 135°13'1110.5
2014-Jul-21 04:33N 34°35' E 135°26'0 0.1
2014-Jul-21 03:25N 34°35' E 135°26'0 0.0
2014-Jul-21 02:07N 34°35' E 135°26'0 0.0
2014-Jul-21 01:25N 34°35' E 135°26'0 0.0
2014-Jul-21 00:19N 34°35' E 135°26'0 0.0
2014-Jul-20 23:31N 34°35' E 135°26'0 0.0
2014-Jul-20 22:31N 34°35' E 135°26'0 0.0
2014-Jul-20 21:13N 34°35' E 135°26'0 0.0
2014-Jul-20 20:25N 34°35' E 135°26'0 0.0
2014-Jul-20 19:30N 34°35' E 135°26'0 0.0
2014-Jul-20 18:30N 34°35' E 135°26'0 0.0
2014-Jul-20 17:30N 34°35' E 135°26'0 0.0
2014-Jul-20 16:30N 34°35' E 135°26'0 0.0
2014-Jul-20 15:30N 34°35' E 135°26'0 0.0
2014-Jul-20 14:30N 34°35' E 135°26'0 0.0
2014-Jul-20 13:30N 34°35' E 135°26'0 0.0
2014-Jul-20 12:24N 34°35' E 135°26'0 0.0
2014-Jul-20 11:24N 34°35' E 135°26'0 0.0
2014-Jul-20 10:24N 34°35' E 135°26'0 0.0
2014-Jul-20 09:24N 34°35' E 135°26'0 0.0
2014-Jul-20 08:30N 34°35' E 135°26'0 0.0
2014-Jul-20 07:18N 34°35' E 135°26'0 0.0
2014-Jul-20 06:30N 34°35' E 135°26'0 0.0
2014-Jul-20 05:30N 34°35' E 135°26'0 0.0
2014-Jul-20 04:30N 34°35' E 135°26'0 0.0
2014-Jul-20 03:30N 34°35' E 135°26'0 0.0
2014-Jul-20 02:30N 34°35' E 135°26'0 0.0
2014-Jul-20 01:30N 34°35' E 135°26'0 0.0
2014-Jul-20 00:30N 34°35' E 135°26'0 0.0
2014-Jul-19 23:30N 34°35' E 135°26'0 0.0
2014-Jul-19 22:30N 34°35' E 135°26'0 0.0
2014-Jul-19 21:30N 34°35' E 135°26'0 0.0
2014-Jul-19 20:24N 34°35' E 135°26'0 0.0
2014-Jul-19 19:30N 34°35' E 135°26'0 0.0
2014-Jul-19 18:24N 34°35' E 135°26'0 0.0
2014-Jul-19 17:30N 34°35' E 135°26'0 0.0
2014-Jul-19 16:24N 34°35' E 135°26'0 0.1
2014-Jul-19 15:30N 34°35' E 135°26'0 0.0
2014-Jul-19 14:30N 34°35' E 135°26'0 0.0
2014-Jul-19 13:30N 34°35' E 135°26'0 0.0
2014-Jul-19 12:30N 34°35' E 135°26'0 0.0
2014-Jul-19 11:30N 34°35' E 135°26'0 0.0
2014-Jul-19 10:30N 34°35' E 135°26'0 0.0
2014-Jul-19 09:23N 34°35' E 135°26'0 0.0
2014-Jul-19 08:29N 34°35' E 135°26'0 0.0
2014-Jul-19 07:23N 34°35' E 135°26'0 0.1
2014-Jul-19 06:29N 34°35' E 135°26'0 0.0
2014-Jul-19 05:05N 34°35' E 135°26'0 0.0
2014-Jul-19 04:23N 34°35' E 135°26'0 0.0
2014-Jul-19 03:23N 34°35' E 135°26'0 0.0
2014-Jul-19 02:29N 34°35' E 135°26'0 0.0
2014-Jul-19 01:23N 34°35' E 135°26'0 0.0
2014-Jul-19 00:23N 34°35' E 135°26'0 0.0
2014-Jul-18 23:29N 34°35' E 135°26'2 1.7
2014-Jul-18 22:33N 34°36' E 135°24'1 0.9
2014-Jul-18 21:24N 34°35' E 135°23'0 0.0
2014-Jul-18 20:30N 34°35' E 135°23'0 0.0
2014-Jul-18 19:24N 34°35' E 135°23'0 0.0
2014-Jul-18 17:18N 34°35' E 135°23'0 0.0
2014-Jul-18 16:24N 34°35' E 135°23'0 0.0
2014-Jul-18 15:30N 34°35' E 135°23'0 0.0
2014-Jul-18 14:24N 34°35' E 135°23'  
Track history (hours):
 
Tides and Currents Weather Stations Pressure Air Temp Water Temp Dewpoint Dewpoint Depression Visibility Wind Speed Wind Dir Waves Ship Positions

Taiseimaru

Last reported at 2014-Jul-28 13:32 UTC. Time now 2014-Jul-28 14:32 UTC.
Position N 35°24' E 139°45'.

Length 84 m; draft 5 m.

Type: Cargo ship. MMSI: 431500568.

Date/timePositionNaut miles runAvg speedWind from/ knotsBaromVisibWave heightAir tempDewpointWater temp
2014-Jul-28 13:32N 35°24' E 139°45'0 0.0
2014-Jul-28 12:32N 35°24' E 139°45'0 0.0
2014-Jul-28 11:32N 35°24' E 139°45'0 0.0
2014-Jul-28 10:32N 35°24' E 139°45'0 0.1
2014-Jul-28 09:32N 35°24' E 139°45'0 0.0
2014-Jul-28 08:32N 35°24' E 139°45'0 0.0
2014-Jul-28 07:32N 35°24' E 139°45'0 0.0
2014-Jul-28 06:32N 35°24' E 139°45'0 0.1
2014-Jul-28 05:32N 35°24' E 139°45'0 0.0
2014-Jul-28 04:32N 35°24' E 139°45'0 0.1
2014-Jul-28 03:32N 35°24' E 139°45'0 0.0
2014-Jul-28 02:32N 35°24' E 139°45'0 0.0
2014-Jul-28 01:32N 35°24' E 139°45'0 0.0
2014-Jul-28 00:32N 35°24' E 139°45'0 0.0
2014-Jul-27 23:32N 35°24' E 139°45'0 0.0
2014-Jul-27 22:32N 35°24' E 139°45'0 0.0
2014-Jul-27 21:32N 35°24' E 139°45'0 0.0
2014-Jul-27 20:32N 35°24' E 139°45'0 0.0
2014-Jul-27 19:32N 35°24' E 139°45'0 0.0
2014-Jul-27 18:32N 35°24' E 139°45'0 0.0
2014-Jul-27 17:32N 35°24' E 139°45'0 0.0
2014-Jul-27 16:32N 35°24' E 139°45'0 0.0
2014-Jul-27 15:32N 35°24' E 139°45'0 0.0
2014-Jul-27 14:32N 35°24' E 139°45'0 0.1
2014-Jul-27 13:32N 35°24' E 139°45'0 0.0
2014-Jul-27 12:32N 35°24' E 139°45'0 0.0
2014-Jul-27 11:32N 35°24' E 139°45'0 0.1
2014-Jul-27 10:32N 35°24' E 139°45'0 0.0
2014-Jul-27 09:31N 35°24' E 139°45'0 0.0
2014-Jul-27 08:31N 35°24' E 139°45'0 0.0
2014-Jul-27 07:31N 35°24' E 139°45'0 0.0
2014-Jul-27 06:31N 35°24' E 139°45'0 0.0
2014-Jul-27 05:31N 35°24' E 139°45'0 0.0
2014-Jul-27 04:31N 35°24' E 139°45'0 0.0
2014-Jul-27 03:31N 35°24' E 139°45'0 0.0
2014-Jul-27 02:31N 35°24' E 139°45'0 0.0
2014-Jul-27 01:31N 35°24' E 139°45'0 0.0
2014-Jul-27 00:31N 35°24' E 139°45'1 1.0
2014-Jul-26 23:33N 35°25' E 139°44'6 5.5
2014-Jul-26 22:31N 35°29' E 139°39'0 0.0
2014-Jul-26 21:28N 35°29' E 139°39'0 0.0
2014-Jul-26 20:31N 35°29' E 139°39'0 0.0
2014-Jul-26 19:31N 35°29' E 139°39'0 0.0
2014-Jul-26 18:31N 35°29' E 139°39'0 0.0
2014-Jul-26 17:31N 35°29' E 139°39'0 0.0
2014-Jul-26 16:31N 35°29' E 139°39'0 0.0
2014-Jul-26 15:31N 35°29' E 139°39'0 0.0
2014-Jul-26 14:31N 35°29' E 139°39'0 0.0
2014-Jul-26 13:31N 35°29' E 139°39'0 0.0
2014-Jul-26 12:31N 35°29' E 139°39'0 0.0
2014-Jul-26 11:28N 35°29' E 139°39'0 0.0
2014-Jul-26 10:31N 35°29' E 139°39'0 0.0
2014-Jul-26 09:31N 35°29' E 139°39'0 0.0
2014-Jul-26 08:31N 35°29' E 139°39'0 0.0
2014-Jul-26 07:31N 35°29' E 139°39'0 0.0
2014-Jul-26 06:33N 35°29' E 139°39'0 0.0
2014-Jul-26 05:33N 35°29' E 139°39'0 0.0
2014-Jul-26 04:33N 35°29' E 139°39'0 0.0
2014-Jul-26 03:33N 35°29' E 139°39'0 0.0
2014-Jul-26 02:33N 35°29' E 139°39'0 0.0
2014-Jul-26 01:33N 35°29' E 139°39'0 0.0
2014-Jul-26 00:33N 35°29' E 139°39'0 0.0
2014-Jul-25 23:33N 35°29' E 139°39'3 3.3
2014-Jul-25 22:33N 35°26' E 139°42'3 2.9
2014-Jul-25 21:31N 35°24' E 139°44'0 0.0
2014-Jul-25 20:31N 35°24' E 139°44'0 0.0
2014-Jul-25 19:33N 35°24' E 139°44'0 0.0
2014-Jul-25 18:33N 35°24' E 139°44'0 0.0
2014-Jul-25 17:33N 35°24' E 139°44'0 0.1
2014-Jul-25 16:33N 35°24' E 139°44'0 0.1
2014-Jul-25 15:33N 35°24' E 139°44'0 0.0
2014-Jul-25 14:33N 35°24' E 139°44'0 0.1
2014-Jul-25 13:33N 35°24' E 139°44'0 0.1
2014-Jul-25 12:33N 35°24' E 139°44'0 0.0
2014-Jul-25 11:33N 35°24' E 139°44'0 0.0
2014-Jul-25 10:33N 35°24' E 139°44'0 0.0
2014-Jul-25 09:33N 35°24' E 139°44'0 0.0
2014-Jul-25 08:33N 35°24' E 139°44'0 0.0
2014-Jul-25 07:33N 35°24' E 139°44'0 0.0
2014-Jul-25 06:33N 35°24' E 139°44'0 0.1
2014-Jul-25 05:33N 35°24' E 139°44'0 0.0
2014-Jul-25 04:33N 35°24' E 139°44'0 0.0
2014-Jul-25 03:33N 35°24' E 139°44'5 4.6
2014-Jul-25 02:32N 35°28' E 139°42'0 0.0
2014-Jul-25 01:32N 35°28' E 139°42'0 0.0
2014-Jul-25 00:32N 35°28' E 139°42'0 0.0
2014-Jul-24 23:32N 35°28' E 139°42'0 0.1
2014-Jul-24 22:32N 35°28' E 139°42'0 0.0
2014-Jul-24 21:32N 35°28' E 139°42'0 0.0
2014-Jul-24 20:32N 35°28' E 139°42'0 0.0
2014-Jul-24 19:32N 35°28' E 139°42'0 0.0
2014-Jul-24 18:32N 35°28' E 139°42'0 0.0
2014-Jul-24 17:32N 35°28' E 139°42'0 0.0
2014-Jul-24 16:32N 35°28' E 139°42'0 0.0
2014-Jul-24 15:32N 35°28' E 139°42'0 0.0
2014-Jul-24 14:32N 35°28' E 139°42'0 0.0
2014-Jul-24 13:32N 35°28' E 139°42'0 0.0
2014-Jul-24 12:32N 35°28' E 139°42'0 0.0
2014-Jul-24 11:32N 35°28' E 139°42'0 0.0
2014-Jul-24 10:32N 35°28' E 139°42'0 0.0
2014-Jul-24 09:32N 35°28' E 139°42'0 0.0
2014-Jul-24 08:33N 35°28' E 139°42'5 4.4
2014-Jul-24 07:31N 35°24' E 139°45'0 0.0
2014-Jul-24 06:31N 35°24' E 139°45'0 0.0
2014-Jul-24 05:31N 35°24' E 139°45'0 0.0
2014-Jul-24 04:31N 35°25' E 139°45'0 0.0
2014-Jul-24 03:31N 35°25' E 139°45'1 1.0
2014-Jul-24 02:33N 35°24' E 139°45'1110.7
2014-Jul-24 01:33N 35°13' E 139°47'1110.9
2014-Jul-24 00:33N 35°03' E 139°40'1211.9
2014-Jul-23 23:34N 34°56' E 139°29'  
2014-Jul-21 06:33N 34°37' E 134°58'1212.3
2014-Jul-21 05:33N 34°36' E 135°13'1110.5
2014-Jul-21 04:33N 34°35' E 135°26'0 0.1
2014-Jul-21 03:25N 34°35' E 135°26'0 0.0
2014-Jul-21 02:07N 34°35' E 135°26'0 0.0
2014-Jul-21 01:25N 34°35' E 135°26'0 0.0
2014-Jul-21 00:19N 34°35' E 135°26'0 0.0
2014-Jul-20 23:31N 34°35' E 135°26'0 0.0
2014-Jul-20 22:31N 34°35' E 135°26'0 0.0
2014-Jul-20 21:13N 34°35' E 135°26'0 0.0
2014-Jul-20 20:25N 34°35' E 135°26'0 0.0
2014-Jul-20 19:30N 34°35' E 135°26'0 0.0
2014-Jul-20 18:30N 34°35' E 135°26'0 0.0
2014-Jul-20 17:30N 34°35' E 135°26'0 0.0
2014-Jul-20 16:30N 34°35' E 135°26'0 0.0
2014-Jul-20 15:30N 34°35' E 135°26'0 0.0
2014-Jul-20 14:30N 34°35' E 135°26'0 0.0
2014-Jul-20 13:30N 34°35' E 135°26'0 0.0
2014-Jul-20 12:24N 34°35' E 135°26'0 0.0
2014-Jul-20 11:24N 34°35' E 135°26'0 0.0
2014-Jul-20 10:24N 34°35' E 135°26'0 0.0
2014-Jul-20 09:24N 34°35' E 135°26'0 0.0
2014-Jul-20 08:30N 34°35' E 135°26'0 0.0
2014-Jul-20 07:18N 34°35' E 135°26'0 0.0
2014-Jul-20 06:30N 34°35' E 135°26'0 0.0
2014-Jul-20 05:30N 34°35' E 135°26'0 0.0
2014-Jul-20 04:30N 34°35' E 135°26'0 0.0
2014-Jul-20 03:30N 34°35' E 135°26'0 0.0
2014-Jul-20 02:30N 34°35' E 135°26'0 0.0
2014-Jul-20 01:30N 34°35' E 135°26'0 0.0
2014-Jul-20 00:30N 34°35' E 135°26'0 0.0
2014-Jul-19 23:30N 34°35' E 135°26'0 0.0
2014-Jul-19 22:30N 34°35' E 135°26'0 0.0
2014-Jul-19 21:30N 34°35' E 135°26'0 0.0
2014-Jul-19 20:24N 34°35' E 135°26'0 0.0
2014-Jul-19 19:30N 34°35' E 135°26'0 0.0
2014-Jul-19 18:24N 34°35' E 135°26'0 0.0
2014-Jul-19 17:30N 34°35' E 135°26'0 0.0
2014-Jul-19 16:24N 34°35' E 135°26'0 0.1
2014-Jul-19 15:30N 34°35' E 135°26'0 0.0
2014-Jul-19 14:30N 34°35' E 135°26'0 0.0
2014-Jul-19 13:30N 34°35' E 135°26'0 0.0
2014-Jul-19 12:30N 34°35' E 135°26'0 0.0
2014-Jul-19 11:30N 34°35' E 135°26'0 0.0
2014-Jul-19 10:30N 34°35' E 135°26'0 0.0
2014-Jul-19 09:23N 34°35' E 135°26'0 0.0
2014-Jul-19 08:29N 34°35' E 135°26'0 0.0
2014-Jul-19 07:23N 34°35' E 135°26'0 0.1
2014-Jul-19 06:29N 34°35' E 135°26'0 0.0
2014-Jul-19 05:05N 34°35' E 135°26'0 0.0
2014-Jul-19 04:23N 34°35' E 135°26'0 0.0
2014-Jul-19 03:23N 34°35' E 135°26'0 0.0
2014-Jul-19 02:29N 34°35' E 135°26'0 0.0
2014-Jul-19 01:23N 34°35' E 135°26'0 0.0
2014-Jul-19 00:23N 34°35' E 135°26'0 0.0
2014-Jul-18 23:29N 34°35' E 135°26'2 1.7
2014-Jul-18 22:33N 34°36' E 135°24'1 0.9
2014-Jul-18 21:24N 34°35' E 135°23'0 0.0
2014-Jul-18 20:30N 34°35' E 135°23'0 0.0
2014-Jul-18 19:24N 34°35' E 135°23'0 0.0
2014-Jul-18 17:18N 34°35' E 135°23'0 0.0
2014-Jul-18 16:24N 34°35' E 135°23'0 0.0
2014-Jul-18 15:30N 34°35' E 135°23'0 0.0
2014-Jul-18 14:24N 34°35' E 135°23'  

Dump ship's entire track history